createdAt,value
2022-08-05T00:01:35.928Z,98707.50
2022-08-05T00:04:05.176Z,98707.25
2022-08-05T00:06:35.950Z,98702.56
2022-08-05T00:09:03.961Z,98701.78
2022-08-05T00:11:35.085Z,98705.44
2022-08-05T00:14:17.832Z,98694.50
2022-08-05T00:16:53.123Z,98694.28
2022-08-05T00:19:22.267Z,98696.13
2022-08-05T00:21:49.957Z,98698.25
2022-08-05T00:24:19.305Z,98701.13
2022-08-05T00:26:53.014Z,98696.97
2022-08-05T00:29:22.365Z,98694.91
2022-08-05T00:32:10.656Z,98696.50
2022-08-05T00:34:55.859Z,98698.88
2022-08-05T00:37:24.772Z,98693.09
2022-08-05T00:39:58.489Z,98695.47
2022-08-05T00:42:33.750Z,98686.63
2022-08-05T00:45:03.019Z,98688.19
2022-08-05T00:47:53.238Z,98687.66
2022-08-05T00:50:18.656Z,98679.31
2022-08-05T00:52:48.301Z,98686.09
2022-08-05T00:55:15.438Z,98681.41
2022-08-05T00:57:55.401Z,98680.13
2022-08-05T01:00:25.887Z,98679.38
2022-08-05T01:02:53.428Z,98680.38
2022-08-05T01:05:20.708Z,98690.31
2022-08-05T01:08:41.597Z,98683.50
2022-08-05T01:10:51.629Z,98691.34
2022-08-05T01:13:27.528Z,98679.91
2022-08-05T01:16:21.080Z,98693.69
2022-08-05T01:19:00.848Z,98692.13
2022-08-05T01:21:58.363Z,98692.38
2022-08-05T01:24:41.775Z,98691.34
2022-08-05T01:27:19.703Z,98699.19
2022-08-05T01:29:56.331Z,98692.38
2022-08-05T01:32:27.680Z,98699.69
2022-08-05T01:34:59.211Z,98703.09
2022-08-05T01:37:34.426Z,98694.47
2022-08-05T01:40:07.420Z,98698.94
2022-08-05T01:42:38.113Z,98687.72
2022-08-05T01:45:10.862Z,98694.72
2022-08-05T01:47:39.916Z,98685.38
2022-08-05T01:50:15.644Z,98690.59
2022-08-05T01:52:49.656Z,98695.53
2022-08-05T01:55:20.033Z,98690.81
2022-08-05T01:58:09.943Z,98689.28
2022-08-05T02:00:42.505Z,98690.56
2022-08-05T02:03:28.936Z,98689.78
2022-08-05T02:06:03.410Z,98688.69
2022-08-05T02:08:44.854Z,98687.91
2022-08-05T02:11:23.845Z,98691.28
2022-08-05T02:13:56.224Z,98685.03
2022-08-05T02:16:29.567Z,98691.28
2022-08-05T02:19:01.474Z,98690.75
2022-08-05T02:21:43.124Z,98688.69
2022-08-05T02:24:17.798Z,98699.59
2022-08-05T02:26:51.862Z,98693.09
2022-08-05T02:29:58.124Z,98699.34
2022-08-05T02:32:19.951Z,98693.06
2022-08-05T02:34:54.746Z,98696.72
2022-08-05T02:37:24.955Z,98690.47
2022-08-05T02:39:53.576Z,98698.03
2022-08-05T02:42:25.838Z,98700.59
2022-08-05T02:44:56.857Z,98697.47
2022-08-05T02:47:36.508Z,98698.50
2022-08-05T02:50:18.051Z,98702.66
2022-08-05T02:52:46.764Z,98697.97
2022-08-05T02:55:14.630Z,98693.78
2022-08-05T02:58:11.047Z,98696.38
2022-08-05T03:00:35.154Z,98692.97
2022-08-05T03:03:07.601Z,98696.09
2022-08-05T03:06:57.024Z,98700.00
2022-08-05T03:08:29.790Z,98701.28
2022-08-05T03:11:55.786Z,98688.28
2022-08-05T03:13:52.156Z,98698.94
2022-08-05T03:16:30.573Z,98697.63
2022-08-05T03:19:01.282Z,98694.28
2022-08-05T03:21:41.511Z,98695.28
2022-08-05T03:24:17.439Z,98706.75
2022-08-05T03:26:49.309Z,98705.94
2022-08-05T03:29:17.314Z,98701.53
2022-08-05T03:31:56.121Z,98706.19
2022-08-05T03:34:27.595Z,98701.78
2022-08-05T03:36:56.047Z,98708.53
2022-08-05T03:39:27.259Z,98701.28
2022-08-05T03:41:56.267Z,98707.53
2022-08-05T03:44:24.005Z,98704.44
2022-08-05T03:46:51.445Z,98707.31
2022-08-05T03:49:18.735Z,98705.78
2022-08-05T03:52:38.087Z,98707.59
2022-08-05T03:56:00.760Z,98718.81
2022-08-05T03:57:42.451Z,98713.63
2022-08-05T04:00:16.025Z,98717.81
2022-08-05T04:02:58.612Z,98717.00
2022-08-05T04:05:34.083Z,98716.25
2022-08-05T04:08:14.510Z,98721.16
2022-08-05T04:10:54.555Z,98722.50
2022-08-05T04:13:22.164Z,98717.84
2022-08-05T04:16:03.132Z,98716.28
2022-08-05T04:18:34.549Z,98716.81
2022-08-05T04:21:02.321Z,98711.38
2022-08-05T04:24:05.433Z,98712.97
2022-08-05T04:26:21.267Z,98710.63
2022-08-05T04:28:51.193Z,98714.28
2022-08-05T04:31:19.680Z,98712.72
2022-08-05T04:34:17.991Z,98712.72
2022-08-05T04:36:46.589Z,98710.91
2022-08-05T04:39:19.515Z,98706.97
2022-08-05T04:41:48.202Z,98702.78
2022-08-05T04:44:16.229Z,98709.28
2022-08-05T04:46:51.729Z,98707.97
2022-08-05T04:49:24.885Z,98704.78
2022-08-05T04:52:07.760Z,98692.69
2022-08-05T04:54:36.377Z,98700.94
2022-08-05T04:57:03.903Z,98704.03
2022-08-05T04:59:38.327Z,98704.16
2022-08-05T05:02:37.566Z,98705.59
2022-08-05T05:05:01.811Z,98698.09
2022-08-05T05:07:32.835Z,98702.06
2022-08-05T05:10:06.433Z,98699.75
2022-08-05T05:12:34.045Z,98699.75
2022-08-05T05:15:05.275Z,98694.31
2022-08-05T05:17:56.605Z,98686.72
2022-08-05T05:20:28.399Z,98685.00
2022-08-05T05:22:56.582Z,98684.09
2022-08-05T05:25:40.279Z,98687.44
2022-08-05T05:28:08.085Z,98685.66
2022-08-05T05:30:36.625Z,98684.41
2022-08-05T05:33:15.927Z,98684.50
2022-08-05T05:35:45.694Z,98690.81
2022-08-05T05:38:14.314Z,98685.19
2022-08-05T05:40:49.811Z,98687.25
2022-08-05T05:43:22.091Z,98679.63
2022-08-05T05:46:13.714Z,98685.00
2022-08-05T05:48:44.274Z,98691.78
2022-08-05T05:51:15.646Z,98687.88
2022-08-05T05:53:54.355Z,98689.94
2022-08-05T05:56:32.406Z,98684.97
2022-08-05T05:59:03.493Z,98690.22
2022-08-05T06:01:37.641Z,98691.25
2022-08-05T06:04:07.179Z,98687.13
2022-08-05T06:06:35.139Z,98691.88
2022-08-05T06:09:03.231Z,98690.06
2022-08-05T06:11:33.227Z,98681.41
2022-08-05T06:14:01.154Z,98688.06
2022-08-05T06:16:32.674Z,98685.47
2022-08-05T06:19:05.728Z,98685.47
2022-08-05T06:21:36.747Z,98684.38
2022-08-05T06:24:07.719Z,98686.34
2022-08-05T06:26:51.250Z,98683.50
2022-08-05T06:29:43.034Z,98684.38
2022-08-05T06:32:21.430Z,98670.47
2022-08-05T06:34:57.114Z,98679.53
2022-08-05T06:37:57.321Z,98683.47
2022-08-05T06:40:14.086Z,98674.63
2022-08-05T06:42:48.178Z,98670.47
2022-08-05T06:45:43.937Z,98673.31
2022-08-05T06:48:36.776Z,98676.16
2022-08-05T06:50:55.599Z,98675.56
2022-08-05T06:53:28.690Z,98678.31
2022-08-05T06:55:56.569Z,98682.19
2022-08-05T06:58:35.495Z,98674.16
2022-08-05T07:01:05.681Z,98672.81
2022-08-05T07:03:33.640Z,98672.34
2022-08-05T07:06:06.059Z,98671.66
2022-08-05T07:08:42.772Z,98676.47
2022-08-05T07:11:15.262Z,98667.53
2022-08-05T07:14:03.235Z,98664.84
2022-08-05T07:18:01.084Z,98668.75
2022-08-05T07:22:28.460Z,98657.22
2022-08-05T07:24:59.302Z,98663.84
2022-08-05T07:27:27.421Z,98659.59
2022-08-05T07:30:24.186Z,98659.06
2022-08-05T07:32:55.529Z,98659.69
2022-08-05T07:36:05.299Z,98658.97
2022-08-05T07:38:33.871Z,98659.81
2022-08-05T07:41:16.791Z,98658.41
2022-08-05T07:43:47.135Z,98661.69
2022-08-05T07:46:20.791Z,98660.59
2022-08-05T07:49:04.047Z,98664.91
2022-08-05T07:51:36.724Z,98665.03
2022-08-05T07:54:05.491Z,98653.81
2022-08-05T07:57:01.414Z,98650.44
2022-08-05T07:59:23.316Z,98661.75
2022-08-05T08:02:15.213Z,98657.78
2022-08-05T08:04:44.938Z,98649.63
2022-08-05T08:07:12.762Z,98652.50
2022-08-05T08:09:39.988Z,98658.34
2022-08-05T08:12:35.102Z,98653.84
2022-08-05T08:14:55.062Z,98656.97
2022-08-05T08:17:23.946Z,98656.13
2022-08-05T08:20:22.635Z,98637.78
2022-08-05T08:22:42.299Z,98644.19
2022-08-05T08:25:15.748Z,98636.97
2022-08-05T08:27:47.919Z,98634.66
2022-08-05T08:30:29.689Z,98643.34
2022-08-05T08:33:08.297Z,98626.25
2022-08-05T08:35:40.872Z,98640.59
2022-08-05T08:38:11.694Z,98641.31
2022-08-05T08:40:50.440Z,98631.63
2022-08-05T08:44:54.656Z,98638.06
2022-08-05T08:46:09.817Z,98634.88
2022-08-05T08:49:06.229Z,98624.63
2022-08-05T08:52:03.097Z,98627.41
2022-08-05T08:54:21.059Z,98623.94
2022-08-05T08:56:56.516Z,98625.97
2022-08-05T08:59:27.611Z,98610.00
2022-08-05T09:02:01.246Z,98622.44
2022-08-05T09:04:30.745Z,98615.53
2022-08-05T09:06:58.513Z,98623.47
2022-08-05T09:09:32.411Z,98611.19
2022-08-05T09:12:14.416Z,98611.91
2022-08-05T09:14:57.030Z,98610.13
2022-08-05T09:17:40.873Z,98605.22
2022-08-05T09:20:13.232Z,98601.22
2022-08-05T09:23:18.589Z,98603.22
2022-08-05T09:26:03.194Z,98596.44
2022-08-05T09:28:33.739Z,98593.03
2022-08-05T09:31:22.615Z,98592.59
2022-08-05T09:33:53.777Z,98587.28
2022-08-05T09:36:27.398Z,98580.84
2022-08-05T09:38:56.262Z,98586.59
2022-08-05T09:41:24.592Z,98579.84
2022-08-05T09:43:53.203Z,98572.19
2022-08-05T09:46:28.342Z,98569.19
2022-08-05T09:49:08.337Z,98562.00
2022-08-05T09:51:50.040Z,98563.19
2022-08-05T09:54:29.546Z,98557.44
2022-08-05T09:57:01.253Z,98567.03
2022-08-05T09:59:35.207Z,98552.94
2022-08-05T10:02:05.399Z,98559.81
2022-08-05T10:04:36.317Z,98563.63
2022-08-05T10:07:20.598Z,98555.44
2022-08-05T10:10:04.316Z,98567.28
2022-08-05T10:12:50.005Z,98561.53
2022-08-05T10:15:25.995Z,98556.84
2022-08-05T10:18:05.854Z,98556.25
2022-08-05T10:20:36.981Z,98547.69
2022-08-05T10:23:08.976Z,98542.50
2022-08-05T10:25:55.322Z,98544.91
2022-08-05T10:28:29.397Z,98543.31
2022-08-05T10:32:49.184Z,98546.75
2022-08-05T10:33:45.734Z,98543.22
2022-08-05T10:36:23.716Z,98540.16
2022-08-05T10:39:05.138Z,98532.75
2022-08-05T10:41:46.419Z,98537.91
2022-08-05T10:44:19.153Z,98535.47
2022-08-05T10:46:50.890Z,98534.38
2022-08-05T10:49:27.491Z,98528.72
2022-08-05T10:52:04.995Z,98540.66
2022-08-05T10:55:04.588Z,98527.78
2022-08-05T10:57:34.259Z,98521.50
2022-08-05T11:00:16.099Z,98523.13
2022-08-05T11:03:24.500Z,98517.94
2022-08-05T11:06:05.022Z,98511.63
2022-08-05T11:08:37.202Z,98519.91
2022-08-05T11:11:52.453Z,98514.59
2022-08-05T11:14:49.355Z,98506.19
2022-08-05T11:17:57.499Z,98498.91
2022-08-05T11:20:44.165Z,98509.78
2022-08-05T11:24:03.876Z,98511.91
2022-08-05T11:26:28.101Z,98507.75
2022-08-05T11:28:59.428Z,98508.59
2022-08-05T11:31:58.375Z,98503.47
2022-08-05T11:34:36.958Z,98495.47
2022-08-05T11:38:14.343Z,98500.44
2022-08-05T11:40:00.721Z,98495.91
2022-08-05T11:42:40.387Z,98497.56
2022-08-05T11:45:23.327Z,98502.84
2022-08-05T11:47:57.882Z,98496.09
2022-08-05T11:50:26.302Z,98482.03
2022-08-05T11:52:57.585Z,98496.53
2022-08-05T11:55:31.961Z,98494.81
2022-08-05T11:58:09.532Z,98485.41
2022-08-05T12:00:44.098Z,98485.09
2022-08-05T12:03:28.570Z,98481.81
2022-08-05T12:06:06.017Z,98474.78
2022-08-05T12:08:34.030Z,98470.72
2022-08-05T12:11:09.257Z,98471.28
2022-08-05T12:13:54.906Z,98471.78
2022-08-05T12:16:29.133Z,98475.25
2022-08-05T12:18:56.573Z,98472.19
2022-08-05T12:21:29.982Z,98464.91
2022-08-05T12:24:05.077Z,98468.91
2022-08-05T12:26:36.077Z,98466.44
2022-08-05T12:29:05.208Z,98467.63
2022-08-05T12:31:45.910Z,98470.78
2022-08-05T12:34:20.500Z,98472.06
2022-08-05T12:36:52.449Z,98462.22
2022-08-05T12:39:19.878Z,98461.44
2022-08-05T12:41:47.131Z,98468.34
2022-08-05T12:44:28.667Z,98466.75
2022-08-05T12:47:03.705Z,98462.34
2022-08-05T12:50:03.628Z,98457.97
2022-08-05T12:52:33.879Z,98465.78
2022-08-05T12:55:17.971Z,98457.91
2022-08-05T12:58:49.373Z,98449.81
2022-08-05T13:02:00.490Z,98445.56
2022-08-05T13:03:32.577Z,98449.31
2022-08-05T13:06:01.007Z,98450.84
2022-08-05T13:08:29.385Z,98447.81
2022-08-05T13:11:00.154Z,98445.06
2022-08-05T13:14:05.273Z,98441.00
2022-08-05T13:16:16.778Z,98443.31
2022-08-05T13:18:52.574Z,98431.25
2022-08-05T13:21:22.571Z,98447.38
2022-08-05T13:23:55.253Z,98443.44
2022-08-05T13:26:30.310Z,98438.00
2022-08-05T13:28:59.018Z,98445.59
2022-08-05T13:31:34.093Z,98430.81
2022-08-05T13:34:21.551Z,98426.09
2022-08-05T13:36:52.842Z,98418.56
2022-08-05T13:40:12.758Z,98419.34
2022-08-05T13:42:14.069Z,98414.75
2022-08-05T13:44:45.463Z,98404.78
2022-08-05T13:47:34.988Z,98412.44
2022-08-05T13:50:04.535Z,98409.03
2022-08-05T13:52:35.184Z,98412.31
2022-08-05T13:55:07.926Z,98418.34
2022-08-05T13:57:48.698Z,98407.47
2022-08-05T14:00:26.913Z,98411.78
2022-08-05T14:02:55.512Z,98407.03
2022-08-05T14:05:48.446Z,98402.25
2022-08-05T14:08:21.056Z,98398.09
2022-08-05T14:11:03.162Z,98397.09
2022-08-05T14:13:42.503Z,98396.09
2022-08-05T14:16:11.545Z,98392.75
2022-08-05T14:18:38.959Z,98385.50
2022-08-05T14:22:08.197Z,98393.16
2022-08-05T14:23:55.371Z,98389.41
2022-08-05T14:26:35.763Z,98379.53
2022-08-05T14:29:06.474Z,98385.28
2022-08-05T14:32:03.917Z,98381.50
2022-08-05T14:34:35.320Z,98373.13
2022-08-05T14:37:05.303Z,98374.69
2022-08-05T14:39:51.190Z,98369.00
2022-08-05T14:42:29.319Z,98371.66
2022-08-05T14:44:56.900Z,98374.25
2022-08-05T14:48:04.175Z,98381.25
2022-08-05T14:50:18.225Z,98384.28
2022-08-05T14:52:53.580Z,98382.78
2022-08-05T14:55:38.580Z,98379.28
2022-08-05T14:58:12.003Z,98369.19
2022-08-05T15:00:58.459Z,98368.94
2022-08-05T15:03:33.809Z,98372.72
2022-08-05T15:06:14.867Z,98378.38
2022-08-05T15:08:59.291Z,98358.53
2022-08-05T15:11:51.507Z,98361.25
2022-08-05T15:14:34.301Z,98360.97
2022-08-05T15:17:04.605Z,98359.38
2022-08-05T15:19:32.141Z,98356.94
2022-08-05T15:22:01.423Z,98356.13
2022-08-05T15:24:30.059Z,98356.81
2022-08-05T15:26:58.091Z,98353.31
2022-08-05T15:29:30.311Z,98356.63
2022-08-05T15:32:03.285Z,98359.50
2022-08-05T15:34:33.603Z,98360.50
2022-08-05T15:37:06.076Z,98357.72
2022-08-05T15:40:59.389Z,98359.31
2022-08-05T15:42:54.521Z,98354.00
2022-08-05T15:45:11.591Z,98348.59
2022-08-05T15:47:38.947Z,98350.03
2022-08-05T15:50:07.403Z,98350.03
2022-08-05T15:52:53.264Z,98340.81
2022-08-05T15:55:24.681Z,98353.94
2022-08-05T15:57:52.407Z,98348.53
2022-08-05T16:00:25.778Z,98343.88
2022-08-05T16:02:56.034Z,98351.06
2022-08-05T16:05:23.270Z,98345.72
2022-08-05T16:07:55.714Z,98347.88
2022-08-05T16:10:27.013Z,98351.53
2022-08-05T16:12:56.099Z,98347.94
2022-08-05T16:15:23.594Z,98350.84
2022-08-05T16:17:57.519Z,98351.13
2022-08-05T16:20:25.308Z,98349.88
2022-08-05T16:22:52.482Z,98343.28
2022-08-05T16:25:19.825Z,98348.50
2022-08-05T16:28:02.208Z,98352.81
2022-08-05T16:30:34.225Z,98347.72
2022-08-05T16:33:03.808Z,98352.47
2022-08-05T16:35:33.793Z,98351.16
2022-08-05T16:38:23.969Z,98344.53
2022-08-05T16:40:59.859Z,98343.56
2022-08-05T16:43:31.453Z,98344.19
2022-08-05T16:46:06.100Z,98351.75
2022-08-05T16:48:37.863Z,98344.84
2022-08-05T16:51:08.989Z,98353.47
2022-08-05T16:54:03.853Z,98359.41
2022-08-05T16:56:26.485Z,98356.63
2022-08-05T16:58:55.842Z,98353.81
2022-08-05T17:01:24.555Z,98359.75
2022-08-05T17:03:52.287Z,98354.63
2022-08-05T17:06:20.222Z,98363.56
2022-08-05T17:08:53.748Z,98361.03
2022-08-05T17:11:23.693Z,98352.03
2022-08-05T17:14:00.237Z,98359.00
2022-08-05T17:16:36.562Z,98361.41
2022-08-05T17:19:07.775Z,98360.72
2022-08-05T17:21:39.683Z,98366.44
2022-08-05T17:24:18.648Z,98369.19
2022-08-05T17:26:58.747Z,98368.03
2022-08-05T17:29:33.164Z,98369.31
2022-08-05T17:32:03.106Z,98376.50
2022-08-05T17:34:32.479Z,98369.75
2022-08-05T17:37:02.232Z,98377.31
2022-08-05T17:39:34.625Z,98375.81
2022-08-05T17:42:18.520Z,98376.56
2022-08-05T17:44:51.414Z,98383.78
2022-08-05T17:47:22.482Z,98382.72
2022-08-05T17:49:59.966Z,98382.84
2022-08-05T17:52:31.071Z,98383.28
2022-08-05T17:54:58.365Z,98390.09
2022-08-05T17:57:25.594Z,98391.63
2022-08-05T18:00:05.458Z,98394.69
2022-08-05T18:02:35.232Z,98391.59
2022-08-05T18:05:07.699Z,98389.06
2022-08-05T18:07:42.256Z,98396.75
2022-08-05T18:10:10.934Z,98401.34
2022-08-05T18:12:38.709Z,98414.34
2022-08-05T18:15:08.823Z,98413.44
2022-08-05T18:18:00.986Z,98410.53
2022-08-05T18:20:29.316Z,98419.78
2022-08-05T18:22:58.657Z,98421.06
2022-08-05T18:25:33.020Z,98423.47
2022-08-05T18:28:01.735Z,98416.72
2022-08-05T18:30:33.281Z,98423.59
2022-08-05T18:33:02.451Z,98423.50
2022-08-05T18:36:01.235Z,98424.81
2022-08-05T18:38:19.167Z,98424.56
2022-08-05T18:41:57.572Z,98428.00
2022-08-05T18:43:43.191Z,98422.47
2022-08-05T18:46:19.854Z,98429.06
2022-08-05T18:48:52.144Z,98425.84
2022-08-05T18:52:04.446Z,98424.44
2022-08-05T18:54:25.791Z,98430.97
2022-08-05T18:56:54.777Z,98439.84
2022-08-05T18:59:44.227Z,98445.75
2022-08-05T19:02:11.334Z,98444.72
2022-08-05T19:05:02.641Z,98440.56
2022-08-05T19:07:46.222Z,98442.94
2022-08-05T19:10:14.273Z,98434.75
2022-08-05T19:12:43.061Z,98438.16
2022-08-05T19:15:54.719Z,98436.97
2022-08-05T19:18:08.809Z,98445.53
2022-08-05T19:20:41.338Z,98448.00
2022-08-05T19:24:04.461Z,98447.56
2022-08-05T19:26:01.795Z,98442.75
2022-08-05T19:28:30.204Z,98439.34
2022-08-05T19:30:57.629Z,98446.78
2022-08-05T19:33:35.163Z,98444.91
2022-08-05T19:36:06.361Z,98438.41
2022-08-05T19:38:34.250Z,98443.66
2022-08-05T19:41:07.137Z,98445.81
2022-08-05T19:44:05.995Z,98445.31
2022-08-05T19:46:30.625Z,98450.06
2022-08-05T19:49:02.834Z,98447.41
2022-08-05T19:52:05.889Z,98457.31
2022-08-05T19:54:26.813Z,98456.19
2022-08-05T19:56:59.272Z,98452.31
2022-08-05T19:59:54.000Z,98455.53
2022-08-05T20:02:14.706Z,98447.50
2022-08-05T20:04:42.960Z,98449.66
2022-08-05T20:07:14.748Z,98456.91
2022-08-05T20:09:54.122Z,98441.88
2022-08-05T20:12:22.716Z,98445.97
2022-08-05T20:14:52.484Z,98443.81
2022-08-05T20:17:19.876Z,98442.03
2022-08-05T20:19:51.050Z,98441.69
2022-08-05T20:22:26.921Z,98443.81
2022-08-05T20:24:54.652Z,98436.72
2022-08-05T20:27:26.802Z,98430.22
2022-08-05T20:29:58.390Z,98433.91
2022-08-05T20:32:27.145Z,98433.25
2022-08-05T20:34:54.919Z,98437.88
2022-08-05T20:38:06.669Z,98443.50
2022-08-05T20:40:12.148Z,98448.25
2022-08-05T20:42:39.625Z,98449.81
2022-08-05T20:45:11.215Z,98450.00
2022-08-05T20:47:40.063Z,98452.91
2022-08-05T20:50:09.314Z,98444.56
2022-08-05T20:52:41.470Z,98447.75
2022-08-05T20:55:54.732Z,98443.88
2022-08-05T20:57:57.510Z,98447.09
2022-08-05T21:00:52.244Z,98451.38
2022-08-05T21:03:11.999Z,98443.34
2022-08-05T21:05:53.908Z,98441.44
2022-08-05T21:08:26.910Z,98442.47
2022-08-05T21:11:12.011Z,98436.28
2022-08-05T21:13:48.229Z,98432.41
2022-08-05T21:16:23.195Z,98428.34
2022-08-05T21:18:59.883Z,98427.09
2022-08-05T21:21:38.802Z,98430.31
2022-08-05T21:24:09.916Z,98432.47
2022-08-05T21:26:43.352Z,98431.47
2022-08-05T21:29:16.708Z,98429.94
2022-08-05T21:31:44.208Z,98429.16
2022-08-05T21:34:11.599Z,98427.13
2022-08-05T21:36:39.530Z,98426.66
2022-08-05T21:39:10.391Z,98418.28
2022-08-05T21:41:43.098Z,98425.50
2022-08-05T21:44:27.053Z,98423.16
2022-08-05T21:46:55.715Z,98428.69
2022-08-05T21:50:00.030Z,98419.28
2022-08-05T21:52:27.655Z,98416.16
2022-08-05T21:54:55.849Z,98417.63
2022-08-05T21:57:32.593Z,98413.13
2022-08-05T22:00:11.093Z,98421.31
2022-08-05T22:02:42.673Z,98417.91
2022-08-05T22:05:10.574Z,98422.38
2022-08-05T22:07:40.521Z,98414.34
2022-08-05T22:10:26.688Z,98416.97
2022-08-05T22:12:57.467Z,98417.53
2022-08-05T22:16:00.685Z,98406.56
2022-08-05T22:18:13.210Z,98408.72
2022-08-05T22:20:44.121Z,98410.06
2022-08-05T22:24:00.804Z,98414.03
2022-08-05T22:26:35.738Z,98409.69
2022-08-05T22:29:04.509Z,98400.38
2022-08-05T22:31:44.366Z,98399.88
2022-08-05T22:34:20.073Z,98404.97
2022-08-05T22:36:52.821Z,98403.00
2022-08-05T22:39:21.436Z,98403.09
2022-08-05T22:42:11.313Z,98403.19
2022-08-05T22:44:37.508Z,98412.69
2022-08-05T22:47:05.987Z,98403.88
2022-08-05T22:50:18.446Z,98404.44
2022-08-05T22:52:30.185Z,98402.38
2022-08-05T22:55:00.087Z,98405.56
2022-08-05T22:57:27.429Z,98410.13
2022-08-05T23:00:08.099Z,98402.38
2022-08-05T23:02:46.474Z,98408.97
2022-08-05T23:05:14.482Z,98405.69
2022-08-05T23:07:48.639Z,98408.19
2022-08-05T23:10:20.174Z,98409.31
2022-08-05T23:12:51.586Z,98406.78
2022-08-05T23:15:26.678Z,98402.44
2022-08-05T23:18:00.824Z,98404.81
2022-08-05T23:20:31.161Z,98398.13
2022-08-05T23:22:58.991Z,98402.88
2022-08-05T23:25:54.917Z,98397.44
2022-08-05T23:28:15.904Z,98402.22
2022-08-05T23:30:53.635Z,98396.09
2022-08-05T23:33:26.357Z,98399.56
2022-08-05T23:36:13.671Z,98394.91
2022-08-05T23:38:42.805Z,98401.78
2022-08-05T23:41:11.255Z,98401.78
2022-08-05T23:44:04.917Z,98400.19
2022-08-05T23:46:29.702Z,98403.41
2022-08-05T23:48:59.667Z,98396.88
2022-08-05T23:51:52.479Z,98405.28
2022-08-05T23:54:25.903Z,98399.31
2022-08-05T23:56:55.300Z,98399.88
2022-08-05T23:59:23.198Z,98398.88
